CDT,Max TemperatureF,Mean TemperatureF,Min TemperatureF,Max Dew PointF,MeanDew PointF,Min DewpointF,Max Humidity, Mean Humidity, Min Humidity, Max Sea Level PressureIn, Mean Sea Level PressureIn, Min Sea Level PressureIn, Max VisibilityMiles, Mean VisibilityMiles, Min VisibilityMiles, Max Wind SpeedMPH, Mean Wind SpeedMPH, Max Gust SpeedMPH,PrecipitationIn, CloudCover, Events, WindDirDegrees
2013-9-1,89,79,68,74,68,64,93,76,59,29.93,29.84,29.75,10,8,1,23,8,28,1.17,4,Rain-Thunderstorm,231
2013-9-2,88,79,69,74,70,64,100,76,51,29.91,29.87,29.83,10,6,1,15,3,18,0.00,4,,283
2013-9-3,82,72,62,64,61,58,84,68,51,30.08,30.01,29.91,10,10,10,13,6,17,0.00,2,,21
2013-9-4,83,70,57,62,58,55,93,68,43,30.17,30.13,30.08,10,9,2,8,1,10,0.00,0,,42
2013-9-5,87,74,60,65,62,58,97,69,40,30.22,30.17,30.14,10,10,8,7,1,9,0.00,0,,27
2013-9-6,89,77,65,67,64,61,93,68,42,30.19,30.13,30.07,10,9,6,9,2,13,0.00,0,,89
2013-9-7,88,76,64,68,65,63,100,75,50,30.10,30.05,29.96,10,5,0,12,3,16,0.00,1,Fog,67
2013-9-8,80,75,70,71,69,67,93,81,69,30.00,29.96,29.94,10,8,3,6,2,8,0.01,2,Rain,101
2013-9-9,93,81,69,74,70,67,97,72,46,30.01,29.98,29.94,10,8,3,12,5,15,0.00,1,,197
2013-9-10,93,85,76,74,72,69,87,67,46,30.13,30.08,30.02,10,9,6,14,4,16,0.02,2,,208
2013-9-11,95,84,73,73,70,66,87,64,41,30.17,30.11,30.04,10,9,7,13,5,16,0.00,0,,208
2013-9-12,88,77,66,71,65,56,90,68,46,30.05,30.00,29.94,10,9,6,15,5,22,0.00,1,,302
2013-9-13,75,65,55,56,51,47,80,61,41,30.10,30.05,30.00,10,10,10,20,7,25,0.00,1,,22
2013-9-14,75,61,47,50,46,43,89,61,33,30.18,30.11,30.08,10,10,10,12,4,16,0.00,0,,63
2013-9-15,81,65,49,59,52,46,93,65,36,30.13,30.08,30.04,10,10,7,14,3,18,0.00,1,,202
2013-9-16,80,70,60,61,59,56,87,71,54,30.23,30.16,30.08,10,10,7,14,7,18,0.10,7,Rain,13
2013-9-17,78,66,58,59,57,55,93,72,50,30.25,30.19,30.12,10,10,9,10,5,14,0.00,1,,66
2013-9-18,82,73,63,70,65,59,93,81,69,30.17,30.10,30.03,10,7,1,9,3,12,0.20,5,Rain,155
2013-9-19,88,79,69,72,69,67,97,76,55,30.07,30.02,29.95,10,8,3,15,7,20,0.00,1,,195
2013-9-20,77,71,64,70,68,66,97,86,74,29.97,29.90,29.83,10,7,2,16,5,25,0.71,6,Rain,240
2013-9-21,74,64,54,66,54,48,90,66,41,29.92,29.87,29.82,10,10,6,15,6,21,0.04,3,Rain,335
2013-9-22,74,62,50,53,50,48,89,65,41,30.02,29.97,29.92,10,10,10,12,4,14,0.00,0,,32
2013-9-23,76,63,50,54,51,48,93,66,38,30.06,30.01,29.98,10,10,10,13,5,16,0.00,0,,61
2013-9-24,83,68,53,63,57,51,93,68,43,30.01,29.93,29.84,10,10,10,10,4,15,0.00,4,,90
2013-9-25,83,74,64,67,64,62,93,72,51,29.90,29.85,29.82,10,9,6,10,2,15,T,4,Rain,79
2013-9-26,84,71,58,62,58,54,97,67,37,30.06,29.99,29.89,10,9,3,9,3,14,0.00,0,,50
2013-9-27,82,68,53,60,55,52,93,66,39,30.15,30.09,30.05,10,9,5,12,4,16,0.00,0,,79
2013-9-28,84,71,57,61,56,54,93,65,37,30.14,30.08,30.04,10,10,9,16,5,22,0.00,1,,179
2013-9-29,68,66,63,63,61,56,100,84,68,30.07,30.04,30.00,10,7,1,13,6,17,0.55,8,Rain,197
2013-9-30,76,70,64,64,63,61,93,81,68,30.02,29.99,29.95,10,7,2,13,4,,0.01,7,Rain,191